sensor_id;sensor_type;location;lat;lon;timestamp;pressure;altitude;pressure_sealevel;temperature;humidity
29815;BME280;16708;50.426;7.664;2023-12-28T00:08:37;984.74;;;8.25;88.47
29815;BME280;16708;50.426;7.664;2023-12-28T00:37:43;985.06;;;8.02;96.50
29815;BME280;16708;50.426;7.664;2023-12-28T01:07:01;985.58;;;8.14;100.00
29815;BME280;16708;50.426;7.664;2023-12-28T01:36:14;986.04;;;7.76;100.00
29815;BME280;16708;50.426;7.664;2023-12-28T02:05:29;986.29;;;7.56;100.00
29815;BME280;16708;50.426;7.664;2023-12-28T02:34:46;986.51;;;7.46;100.00
29815;BME280;16708;50.426;7.664;2023-12-28T03:04:02;986.07;;;7.23;100.00
29815;BME280;16708;50.426;7.664;2023-12-28T03:33:19;986.15;;;7.25;100.00
29815;BME280;16708;50.426;7.664;2023-12-28T04:02:30;986.02;;;7.21;100.00
29815;BME280;16708;50.426;7.664;2023-12-28T05:00:59;985.69;;;7.55;100.00
29815;BME280;16708;50.426;7.664;2023-12-28T05:30:16;986.04;;;7.63;100.00
29815;BME280;16708;50.426;7.664;2023-12-28T07:08:11;986.24;;;7.94;100.00
29815;BME280;16708;50.426;7.664;2023-12-28T08:06:43;986.41;;;8.19;100.00
29815;BME280;16708;50.426;7.664;2023-12-28T09:05:21;986.97;;;8.86;100.00
29815;BME280;16708;50.426;7.664;2023-12-28T09:34:56;987.33;;;9.75;100.00
29815;BME280;16708;50.426;7.664;2023-12-28T10:04:16;986.93;;;11.62;100.00
29815;BME280;16708;50.426;7.664;2023-12-28T10:33:18;987.21;;;10.23;100.00
29815;BME280;16708;50.426;7.664;2023-12-28T10:47:58;987.32;;;10.06;100.00
29815;BME280;16708;50.426;7.664;2023-12-28T11:02:35;987.39;;;9.90;100.00
29815;BME280;16708;50.426;7.664;2023-12-28T11:17:19;987.13;;;11.63;100.00
29815;BME280;16708;50.426;7.664;2023-12-28T11:31:55;987.02;;;10.59;100.00
29815;BME280;16708;50.426;7.664;2023-12-28T12:01:29;986.80;;;15.23;80.68
29815;BME280;16708;50.426;7.664;2023-12-28T12:16:07;986.43;;;15.26;77.95
29815;BME280;16708;50.426;7.664;2023-12-28T12:30:46;986.36;;;14.78;78.48
29815;BME280;16708;50.426;7.664;2023-12-28T12:45:21;986.15;;;14.85;76.05
29815;BME280;16708;50.426;7.664;2023-12-28T13:00:00;986.06;;;14.89;74.13
29815;BME280;16708;50.426;7.664;2023-12-28T13:14:37;986.18;;;14.33;82.78
29815;BME280;16708;50.426;7.664;2023-12-28T13:29:10;985.93;;;14.06;91.38
29815;BME280;16708;50.426;7.664;2023-12-28T13:43:47;985.94;;;14.69;88.32
29815;BME280;16708;50.426;7.664;2023-12-28T13:58:25;985.67;;;13.49;100.00
29815;BME280;16708;50.426;7.664;2023-12-28T14:12:57;985.59;;;13.33;96.69
29815;BME280;16708;50.426;7.664;2023-12-28T14:27:30;985.66;;;11.93;100.00
29815;BME280;16708;50.426;7.664;2023-12-28T14:42:00;985.72;;;11.36;100.00
29815;BME280;16708;50.426;7.664;2023-12-28T14:56:34;985.64;;;10.34;100.00
29815;BME280;16708;50.426;7.664;2023-12-28T15:11:09;985.45;;;9.93;100.00
29815;BME280;16708;50.426;7.664;2023-12-28T15:25:42;985.36;;;9.62;100.00
29815;BME280;16708;50.426;7.664;2023-12-28T15:40:16;985.37;;;9.33;100.00
29815;BME280;16708;50.426;7.664;2023-12-28T15:54:53;985.28;;;9.13;100.00
29815;BME280;16708;50.426;7.664;2023-12-28T16:09:30;985.36;;;9.08;100.00
29815;BME280;16708;50.426;7.664;2023-12-28T16:24:08;985.37;;;9.07;100.00
29815;BME280;16708;50.426;7.664;2023-12-28T16:38:45;985.26;;;9.01;100.00
29815;BME280;16708;50.426;7.664;2023-12-28T16:53:22;985.23;;;8.97;100.00
29815;BME280;16708;50.426;7.664;2023-12-28T17:08:00;985.45;;;8.88;100.00
29815;BME280;16708;50.426;7.664;2023-12-28T17:22:37;985.57;;;8.88;100.00
29815;BME280;16708;50.426;7.664;2023-12-28T17:37:13;985.54;;;8.67;100.00
29815;BME280;16708;50.426;7.664;2023-12-28T17:51:48;985.41;;;8.59;100.00
29815;BME280;16708;50.426;7.664;2023-12-28T18:06:19;985.73;;;8.52;100.00
29815;BME280;16708;50.426;7.664;2023-12-28T18:20:58;985.66;;;8.63;100.00
29815;BME280;16708;50.426;7.664;2023-12-28T18:35:35;985.61;;;8.62;100.00
29815;BME280;16708;50.426;7.664;2023-12-28T18:50:12;985.49;;;8.51;100.00
29815;BME280;16708;50.426;7.664;2023-12-28T19:04:51;985.70;;;8.44;100.00
29815;BME280;16708;50.426;7.664;2023-12-28T19:19:26;985.80;;;8.45;100.00
29815;BME280;16708;50.426;7.664;2023-12-28T19:34:04;985.58;;;8.27;100.00
29815;BME280;16708;50.426;7.664;2023-12-28T19:48:41;985.55;;;8.17;100.00
29815;BME280;16708;50.426;7.664;2023-12-28T20:03:17;985.54;;;8.17;100.00
29815;BME280;16708;50.426;7.664;2023-12-28T20:17:56;985.41;;;8.23;100.00
29815;BME280;16708;50.426;7.664;2023-12-28T20:32:34;985.30;;;8.32;100.00
29815;BME280;16708;50.426;7.664;2023-12-28T20:47:10;985.36;;;8.32;100.00
29815;BME280;16708;50.426;7.664;2023-12-28T21:01:48;985.35;;;8.36;100.00
29815;BME280;16708;50.426;7.664;2023-12-28T21:16:20;985.23;;;8.35;100.00
29815;BME280;16708;50.426;7.664;2023-12-28T21:30:57;985.20;;;8.23;100.00
29815;BME280;16708;50.426;7.664;2023-12-28T21:45:30;985.15;;;8.07;100.00
29815;BME280;16708;50.426;7.664;2023-12-28T22:00:06;985.16;;;8.14;100.00
29815;BME280;16708;50.426;7.664;2023-12-28T22:14:43;985.08;;;8.14;100.00
29815;BME280;16708;50.426;7.664;2023-12-28T22:29:20;985.10;;;7.85;100.00
29815;BME280;16708;50.426;7.664;2023-12-28T22:43:58;985.11;;;8.04;100.00
29815;BME280;16708;50.426;7.664;2023-12-28T22:58:33;984.75;;;7.93;100.00
29815;BME280;16708;50.426;7.664;2023-12-28T23:13:10;984.78;;;7.93;100.00
29815;BME280;16708;50.426;7.664;2023-12-28T23:27:48;984.73;;;8.15;100.00
29815;BME280;16708;50.426;7.664;2023-12-28T23:42:24;984.59;;;8.13;100.00
29815;BME280;16708;50.426;7.664;2023-12-28T23:56:59;984.40;;;8.12;100.00
